sensor_id;sensor_type;location;lat;lon;timestamp;P1;durP1;ratioP1;P2;durP2;ratioP2
4583;SDS011;2304;47.606;12.186;2023-12-07T00:04:34;21.10;;;12.00;;
4583;SDS011;2304;47.606;12.186;2023-12-07T00:09:37;26.50;;;14.30;;
4583;SDS011;2304;47.606;12.186;2023-12-07T00:14:39;26.37;;;14.23;;
4583;SDS011;2304;47.606;12.186;2023-12-07T00:19:41;26.00;;;13.13;;
4583;SDS011;2304;47.606;12.186;2023-12-07T00:24:44;23.03;;;12.47;;
4583;SDS011;2304;47.606;12.186;2023-12-07T00:29:46;20.53;;;11.70;;
4583;SDS011;2304;47.606;12.186;2023-12-07T00:34:48;27.23;;;13.90;;
4583;SDS011;2304;47.606;12.186;2023-12-07T00:39:51;22.83;;;13.60;;
4583;SDS011;2304;47.606;12.186;2023-12-07T00:49:56;23.97;;;14.13;;
4583;SDS011;2304;47.606;12.186;2023-12-07T00:55:00;20.40;;;13.60;;
4583;SDS011;2304;47.606;12.186;2023-12-07T01:00:02;20.70;;;14.00;;
4583;SDS011;2304;47.606;12.186;2023-12-07T01:05:05;18.37;;;11.70;;
4583;SDS011;2304;47.606;12.186;2023-12-07T01:10:08;18.87;;;12.00;;
4583;SDS011;2304;47.606;12.186;2023-12-07T01:15:10;12.63;;;8.23;;
4583;SDS011;2304;47.606;12.186;2023-12-07T01:20:12;12.13;;;8.67;;
4583;SDS011;2304;47.606;12.186;2023-12-07T01:25:16;13.50;;;8.43;;
4583;SDS011;2304;47.606;12.186;2023-12-07T01:30:21;19.60;;;11.77;;
4583;SDS011;2304;47.606;12.186;2023-12-07T01:35:23;18.70;;;12.47;;
4583;SDS011;2304;47.606;12.186;2023-12-07T01:40:26;22.27;;;13.33;;
4583;SDS011;2304;47.606;12.186;2023-12-07T01:45:28;20.80;;;14.90;;
4583;SDS011;2304;47.606;12.186;2023-12-07T01:50:30;18.17;;;11.57;;
4583;SDS011;2304;47.606;12.186;2023-12-07T01:55:33;13.67;;;9.80;;
4583;SDS011;2304;47.606;12.186;2023-12-07T02:00:35;16.33;;;9.67;;
4583;SDS011;2304;47.606;12.186;2023-12-07T02:05:37;18.87;;;11.47;;
4583;SDS011;2304;47.606;12.186;2023-12-07T02:10:45;23.83;;;15.23;;
4583;SDS011;2304;47.606;12.186;2023-12-07T02:15:47;24.30;;;13.30;;
4583;SDS011;2304;47.606;12.186;2023-12-07T02:20:52;21.17;;;13.20;;
4583;SDS011;2304;47.606;12.186;2023-12-07T02:26:01;15.83;;;10.40;;
4583;SDS011;2304;47.606;12.186;2023-12-07T02:31:06;17.50;;;10.73;;
4583;SDS011;2304;47.606;12.186;2023-12-07T02:36:08;17.70;;;10.20;;
4583;SDS011;2304;47.606;12.186;2023-12-07T02:41:10;12.10;;;8.20;;
4583;SDS011;2304;47.606;12.186;2023-12-07T02:46:14;11.33;;;7.23;;
4583;SDS011;2304;47.606;12.186;2023-12-07T02:51:16;13.30;;;7.20;;
4583;SDS011;2304;47.606;12.186;2023-12-07T02:56:18;9.97;;;7.17;;
4583;SDS011;2304;47.606;12.186;2023-12-07T03:01:21;12.27;;;8.83;;
4583;SDS011;2304;47.606;12.186;2023-12-07T03:06:23;16.83;;;11.57;;
4583;SDS011;2304;47.606;12.186;2023-12-07T03:11:24;24.40;;;15.47;;
4583;SDS011;2304;47.606;12.186;2023-12-07T03:16:28;18.23;;;12.50;;
4583;SDS011;2304;47.606;12.186;2023-12-07T03:21:29;19.40;;;13.20;;
4583;SDS011;2304;47.606;12.186;2023-12-07T03:26:31;16.43;;;11.40;;
4583;SDS011;2304;47.606;12.186;2023-12-07T03:31:35;21.47;;;16.23;;
4583;SDS011;2304;47.606;12.186;2023-12-07T03:36:36;17.07;;;12.33;;
4583;SDS011;2304;47.606;12.186;2023-12-07T03:41:39;18.00;;;13.07;;
4583;SDS011;2304;47.606;12.186;2023-12-07T03:46:42;18.50;;;13.50;;
4583;SDS011;2304;47.606;12.186;2023-12-07T03:51:44;20.27;;;12.27;;
4583;SDS011;2304;47.606;12.186;2023-12-07T03:56:46;18.43;;;12.07;;
4583;SDS011;2304;47.606;12.186;2023-12-07T04:01:49;20.10;;;13.37;;
4583;SDS011;2304;47.606;12.186;2023-12-07T04:06:51;19.10;;;11.73;;
4583;SDS011;2304;47.606;12.186;2023-12-07T04:11:53;17.80;;;12.53;;
4583;SDS011;2304;47.606;12.186;2023-12-07T04:16:56;17.07;;;11.27;;
4583;SDS011;2304;47.606;12.186;2023-12-07T04:21:58;26.00;;;14.73;;
4583;SDS011;2304;47.606;12.186;2023-12-07T04:27:00;34.77;;;18.20;;
4583;SDS011;2304;47.606;12.186;2023-12-07T04:32:03;20.47;;;12.90;;
4583;SDS011;2304;47.606;12.186;2023-12-07T04:37:05;18.17;;;12.30;;
4583;SDS011;2304;47.606;12.186;2023-12-07T04:42:07;17.57;;;11.53;;
4583;SDS011;2304;47.606;12.186;2023-12-07T04:47:10;20.37;;;12.80;;
4583;SDS011;2304;47.606;12.186;2023-12-07T04:52:12;17.70;;;12.20;;
4583;SDS011;2304;47.606;12.186;2023-12-07T04:57:14;18.17;;;12.27;;
4583;SDS011;2304;47.606;12.186;2023-12-07T05:02:17;19.60;;;11.43;;
4583;SDS011;2304;47.606;12.186;2023-12-07T05:07:19;19.30;;;12.93;;
4583;SDS011;2304;47.606;12.186;2023-12-07T05:12:21;21.63;;;13.97;;
4583;SDS011;2304;47.606;12.186;2023-12-07T05:17:25;22.80;;;13.93;;
4583;SDS011;2304;47.606;12.186;2023-12-07T05:22:27;25.27;;;16.20;;
4583;SDS011;2304;47.606;12.186;2023-12-07T05:27:29;37.93;;;22.33;;
4583;SDS011;2304;47.606;12.186;2023-12-07T05:32:32;34.27;;;19.70;;
4583;SDS011;2304;47.606;12.186;2023-12-07T05:37:34;21.63;;;14.43;;
4583;SDS011;2304;47.606;12.186;2023-12-07T05:42:35;20.13;;;12.67;;
4583;SDS011;2304;47.606;12.186;2023-12-07T05:47:39;34.47;;;20.60;;
4583;SDS011;2304;47.606;12.186;2023-12-07T05:52:40;39.07;;;23.00;;
4583;SDS011;2304;47.606;12.186;2023-12-07T05:57:44;30.00;;;19.97;;
4583;SDS011;2304;47.606;12.186;2023-12-07T06:02:48;29.60;;;19.70;;
4583;SDS011;2304;47.606;12.186;2023-12-07T06:07:50;26.07;;;16.13;;
4583;SDS011;2304;47.606;12.186;2023-12-07T06:12:53;166.53;;;68.87;;
4583;SDS011;2304;47.606;12.186;2023-12-07T06:17:58;142.90;;;63.67;;
4583;SDS011;2304;47.606;12.186;2023-12-07T06:22:59;30.70;;;18.20;;
4583;SDS011;2304;47.606;12.186;2023-12-07T06:28:02;24.60;;;15.50;;
4583;SDS011;2304;47.606;12.186;2023-12-07T06:33:05;32.07;;;19.83;;
4583;SDS011;2304;47.606;12.186;2023-12-07T06:38:07;28.13;;;19.17;;
4583;SDS011;2304;47.606;12.186;2023-12-07T06:43:09;27.07;;;15.57;;
4583;SDS011;2304;47.606;12.186;2023-12-07T06:48:12;23.93;;;14.93;;
4583;SDS011;2304;47.606;12.186;2023-12-07T06:53:14;28.70;;;16.33;;
4583;SDS011;2304;47.606;12.186;2023-12-07T06:58:18;32.80;;;17.53;;
4583;SDS011;2304;47.606;12.186;2023-12-07T07:03:21;27.60;;;16.40;;
4583;SDS011;2304;47.606;12.186;2023-12-07T07:08:24;23.23;;;14.70;;
4583;SDS011;2304;47.606;12.186;2023-12-07T07:13:26;24.77;;;13.80;;
4583;SDS011;2304;47.606;12.186;2023-12-07T07:18:29;19.10;;;12.50;;
4583;SDS011;2304;47.606;12.186;2023-12-07T07:23:31;24.23;;;13.97;;
4583;SDS011;2304;47.606;12.186;2023-12-07T07:28:33;24.33;;;14.63;;
4583;SDS011;2304;47.606;12.186;2023-12-07T07:33:37;23.57;;;13.97;;
4583;SDS011;2304;47.606;12.186;2023-12-07T07:38:39;33.50;;;13.87;;
4583;SDS011;2304;47.606;12.186;2023-12-07T07:43:41;30.20;;;14.10;;
4583;SDS011;2304;47.606;12.186;2023-12-07T07:48:44;23.97;;;14.50;;
4583;SDS011;2304;47.606;12.186;2023-12-07T07:53:46;27.23;;;13.57;;
4583;SDS011;2304;47.606;12.186;2023-12-07T07:58:48;26.50;;;12.50;;
4583;SDS011;2304;47.606;12.186;2023-12-07T08:03:51;23.90;;;13.00;;
4583;SDS011;2304;47.606;12.186;2023-12-07T08:08:53;22.00;;;11.80;;
4583;SDS011;2304;47.606;12.186;2023-12-07T08:13:54;30.23;;;17.23;;
4583;SDS011;2304;47.606;12.186;2023-12-07T08:18:58;25.33;;;15.30;;
4583;SDS011;2304;47.606;12.186;2023-12-07T08:23:59;28.73;;;16.87;;
4583;SDS011;2304;47.606;12.186;2023-12-07T08:29:01;44.30;;;24.03;;
4583;SDS011;2304;47.606;12.186;2023-12-07T08:34:04;31.70;;;20.50;;
4583;SDS011;2304;47.606;12.186;2023-12-07T08:39:06;29.07;;;18.10;;
4583;SDS011;2304;47.606;12.186;2023-12-07T08:44:09;33.80;;;18.40;;
4583;SDS011;2304;47.606;12.186;2023-12-07T08:49:13;46.63;;;27.17;;
4583;SDS011;2304;47.606;12.186;2023-12-07T08:54:16;29.33;;;18.87;;
4583;SDS011;2304;47.606;12.186;2023-12-07T08:59:17;21.33;;;15.37;;
4583;SDS011;2304;47.606;12.186;2023-12-07T09:04:21;23.00;;;14.93;;
4583;SDS011;2304;47.606;12.186;2023-12-07T09:09:22;26.57;;;17.57;;
4583;SDS011;2304;47.606;12.186;2023-12-07T09:14:25;21.03;;;15.00;;
4583;SDS011;2304;47.606;12.186;2023-12-07T09:19:29;19.40;;;12.00;;
4583;SDS011;2304;47.606;12.186;2023-12-07T09:24:30;11.00;;;7.43;;
4583;SDS011;2304;47.606;12.186;2023-12-07T09:29:34;9.73;;;6.40;;
4583;SDS011;2304;47.606;12.186;2023-12-07T09:34:39;8.73;;;6.60;;
4583;SDS011;2304;47.606;12.186;2023-12-07T09:39:40;10.83;;;6.70;;
4583;SDS011;2304;47.606;12.186;2023-12-07T09:44:42;13.20;;;7.83;;
4583;SDS011;2304;47.606;12.186;2023-12-07T09:49:45;13.20;;;8.77;;
4583;SDS011;2304;47.606;12.186;2023-12-07T09:54:47;13.37;;;8.23;;
4583;SDS011;2304;47.606;12.186;2023-12-07T09:59:51;12.80;;;7.90;;
4583;SDS011;2304;47.606;12.186;2023-12-07T10:05:04;14.67;;;9.50;;
4583;SDS011;2304;47.606;12.186;2023-12-07T10:10:07;14.70;;;8.83;;
4583;SDS011;2304;47.606;12.186;2023-12-07T10:15:11;16.60;;;10.00;;
4583;SDS011;2304;47.606;12.186;2023-12-07T10:20:16;16.83;;;9.67;;
4583;SDS011;2304;47.606;12.186;2023-12-07T10:25:20;19.00;;;11.67;;
4583;SDS011;2304;47.606;12.186;2023-12-07T10:30:22;14.37;;;9.87;;
4583;SDS011;2304;47.606;12.186;2023-12-07T10:35:27;15.93;;;9.40;;
4583;SDS011;2304;47.606;12.186;2023-12-07T10:40:29;14.70;;;9.67;;
4583;SDS011;2304;47.606;12.186;2023-12-07T10:45:31;13.07;;;9.20;;
4583;SDS011;2304;47.606;12.186;2023-12-07T10:50:36;14.13;;;8.53;;
4583;SDS011;2304;47.606;12.186;2023-12-07T10:55:42;11.70;;;9.10;;
4583;SDS011;2304;47.606;12.186;2023-12-07T11:00:48;16.43;;;10.63;;
4583;SDS011;2304;47.606;12.186;2023-12-07T11:05:51;16.20;;;11.43;;
4583;SDS011;2304;47.606;12.186;2023-12-07T11:10:58;16.90;;;11.00;;
4583;SDS011;2304;47.606;12.186;2023-12-07T11:16:05;17.17;;;11.10;;
4583;SDS011;2304;47.606;12.186;2023-12-07T11:21:09;13.80;;;9.03;;
4583;SDS011;2304;47.606;12.186;2023-12-07T11:26:11;16.13;;;6.40;;
4583;SDS011;2304;47.606;12.186;2023-12-07T11:31:13;9.73;;;6.87;;
4583;SDS011;2304;47.606;12.186;2023-12-07T11:36:17;11.13;;;8.00;;
4583;SDS011;2304;47.606;12.186;2023-12-07T11:41:19;12.20;;;7.20;;
4583;SDS011;2304;47.606;12.186;2023-12-07T11:46:21;18.90;;;8.27;;
4583;SDS011;2304;47.606;12.186;2023-12-07T11:51:25;14.60;;;8.57;;
4583;SDS011;2304;47.606;12.186;2023-12-07T11:56:30;12.47;;;9.30;;
4583;SDS011;2304;47.606;12.186;2023-12-07T12:01:32;13.13;;;8.40;;
4583;SDS011;2304;47.606;12.186;2023-12-07T12:06:35;16.33;;;9.17;;
4583;SDS011;2304;47.606;12.186;2023-12-07T12:11:37;12.00;;;8.57;;
4583;SDS011;2304;47.606;12.186;2023-12-07T12:16:46;11.70;;;8.40;;
4583;SDS011;2304;47.606;12.186;2023-12-07T12:21:50;11.83;;;8.43;;
4583;SDS011;2304;47.606;12.186;2023-12-07T12:26:51;15.40;;;8.00;;
4583;SDS011;2304;47.606;12.186;2023-12-07T12:31:53;15.20;;;8.33;;
4583;SDS011;2304;47.606;12.186;2023-12-07T12:36:56;11.90;;;8.13;;
4583;SDS011;2304;47.606;12.186;2023-12-07T12:41:58;9.83;;;7.10;;
4583;SDS011;2304;47.606;12.186;2023-12-07T12:47:01;10.60;;;7.53;;
4583;SDS011;2304;47.606;12.186;2023-12-07T12:52:04;12.73;;;6.90;;
4583;SDS011;2304;47.606;12.186;2023-12-07T12:57:10;9.63;;;6.70;;
4583;SDS011;2304;47.606;12.186;2023-12-07T13:02:14;10.83;;;7.10;;
4583;SDS011;2304;47.606;12.186;2023-12-07T13:07:18;10.90;;;7.10;;
4583;SDS011;2304;47.606;12.186;2023-12-07T13:12:20;8.80;;;6.23;;
4583;SDS011;2304;47.606;12.186;2023-12-07T13:17:22;10.20;;;6.67;;
4583;SDS011;2304;47.606;12.186;2023-12-07T13:22:25;10.77;;;6.73;;
4583;SDS011;2304;47.606;12.186;2023-12-07T13:27:27;9.90;;;6.80;;
4583;SDS011;2304;47.606;12.186;2023-12-07T13:32:29;12.10;;;7.00;;
4583;SDS011;2304;47.606;12.186;2023-12-07T13:37:32;6.97;;;5.60;;
4583;SDS011;2304;47.606;12.186;2023-12-07T13:42:34;10.53;;;6.77;;
4583;SDS011;2304;47.606;12.186;2023-12-07T13:47:37;9.87;;;6.27;;
4583;SDS011;2304;47.606;12.186;2023-12-07T13:52:40;8.20;;;5.47;;
4583;SDS011;2304;47.606;12.186;2023-12-07T13:57:42;7.43;;;4.97;;
4583;SDS011;2304;47.606;12.186;2023-12-07T14:02:44;21.30;;;11.60;;
4583;SDS011;2304;47.606;12.186;2023-12-07T14:07:47;8.80;;;5.20;;
4583;SDS011;2304;47.606;12.186;2023-12-07T14:12:49;10.13;;;6.10;;
4583;SDS011;2304;47.606;12.186;2023-12-07T14:17:51;20.13;;;10.67;;
4583;SDS011;2304;47.606;12.186;2023-12-07T14:22:54;36.47;;;18.70;;
4583;SDS011;2304;47.606;12.186;2023-12-07T14:27:57;11.57;;;7.50;;
4583;SDS011;2304;47.606;12.186;2023-12-07T14:32:58;12.83;;;8.20;;
4583;SDS011;2304;47.606;12.186;2023-12-07T14:38:01;10.73;;;7.90;;
4583;SDS011;2304;47.606;12.186;2023-12-07T14:43:03;12.50;;;7.53;;
4583;SDS011;2304;47.606;12.186;2023-12-07T14:48:05;12.10;;;8.27;;
4583;SDS011;2304;47.606;12.186;2023-12-07T14:53:08;16.37;;;10.10;;
4583;SDS011;2304;47.606;12.186;2023-12-07T14:58:11;18.17;;;10.80;;
4583;SDS011;2304;47.606;12.186;2023-12-07T15:03:12;15.07;;;9.37;;
4583;SDS011;2304;47.606;12.186;2023-12-07T15:08:15;16.60;;;8.07;;
4583;SDS011;2304;47.606;12.186;2023-12-07T15:13:17;10.97;;;6.63;;
4583;SDS011;2304;47.606;12.186;2023-12-07T15:18:19;9.07;;;6.70;;
4583;SDS011;2304;47.606;12.186;2023-12-07T15:23:22;17.93;;;7.10;;
4583;SDS011;2304;47.606;12.186;2023-12-07T15:28:24;12.70;;;7.80;;
4583;SDS011;2304;47.606;12.186;2023-12-07T15:33:26;12.87;;;7.73;;
4583;SDS011;2304;47.606;12.186;2023-12-07T15:38:29;10.30;;;5.93;;
4583;SDS011;2304;47.606;12.186;2023-12-07T15:43:31;10.90;;;6.47;;
4583;SDS011;2304;47.606;12.186;2023-12-07T15:48:34;10.30;;;5.90;;
4583;SDS011;2304;47.606;12.186;2023-12-07T15:53:37;9.80;;;6.23;;
4583;SDS011;2304;47.606;12.186;2023-12-07T15:58:39;8.80;;;5.90;;
4583;SDS011;2304;47.606;12.186;2023-12-07T16:03:41;8.97;;;6.53;;
4583;SDS011;2304;47.606;12.186;2023-12-07T16:08:44;9.50;;;7.00;;
4583;SDS011;2304;47.606;12.186;2023-12-07T16:13:46;11.90;;;7.10;;
4583;SDS011;2304;47.606;12.186;2023-12-07T16:18:48;11.70;;;6.83;;
4583;SDS011;2304;47.606;12.186;2023-12-07T16:23:52;11.53;;;8.00;;
4583;SDS011;2304;47.606;12.186;2023-12-07T16:28:53;12.37;;;7.90;;
4583;SDS011;2304;47.606;12.186;2023-12-07T16:33:55;11.80;;;7.50;;
4583;SDS011;2304;47.606;12.186;2023-12-07T16:38:59;13.07;;;7.20;;
4583;SDS011;2304;47.606;12.186;2023-12-07T16:44:02;11.67;;;7.00;;
4583;SDS011;2304;47.606;12.186;2023-12-07T16:49:04;9.60;;;6.20;;
4583;SDS011;2304;47.606;12.186;2023-12-07T16:54:07;10.20;;;6.67;;
4583;SDS011;2304;47.606;12.186;2023-12-07T16:59:09;13.27;;;7.00;;
4583;SDS011;2304;47.606;12.186;2023-12-07T17:04:11;12.83;;;7.37;;
4583;SDS011;2304;47.606;12.186;2023-12-07T17:09:14;10.67;;;6.67;;
4583;SDS011;2304;47.606;12.186;2023-12-07T17:14:16;10.60;;;6.93;;
4583;SDS011;2304;47.606;12.186;2023-12-07T17:19:18;14.67;;;6.43;;
4583;SDS011;2304;47.606;12.186;2023-12-07T17:24:21;9.57;;;6.70;;
4583;SDS011;2304;47.606;12.186;2023-12-07T17:29:23;12.43;;;7.47;;
4583;SDS011;2304;47.606;12.186;2023-12-07T17:34:25;9.43;;;7.13;;
4583;SDS011;2304;47.606;12.186;2023-12-07T17:39:28;11.73;;;6.83;;
4583;SDS011;2304;47.606;12.186;2023-12-07T17:44:30;10.80;;;7.03;;
4583;SDS011;2304;47.606;12.186;2023-12-07T17:49:32;12.57;;;6.33;;
4583;SDS011;2304;47.606;12.186;2023-12-07T17:54:35;12.10;;;7.03;;
4583;SDS011;2304;47.606;12.186;2023-12-07T17:59:37;10.73;;;5.93;;
4583;SDS011;2304;47.606;12.186;2023-12-07T18:04:39;13.80;;;7.77;;
4583;SDS011;2304;47.606;12.186;2023-12-07T18:09:42;12.83;;;7.90;;
4583;SDS011;2304;47.606;12.186;2023-12-07T18:14:44;12.53;;;7.93;;
4583;SDS011;2304;47.606;12.186;2023-12-07T18:19:46;11.73;;;7.43;;
4583;SDS011;2304;47.606;12.186;2023-12-07T18:24:49;13.43;;;7.50;;
4583;SDS011;2304;47.606;12.186;2023-12-07T18:29:51;12.87;;;8.47;;
4583;SDS011;2304;47.606;12.186;2023-12-07T18:34:52;11.70;;;7.40;;
4583;SDS011;2304;47.606;12.186;2023-12-07T18:39:55;12.97;;;6.90;;
4583;SDS011;2304;47.606;12.186;2023-12-07T18:44:58;10.60;;;7.03;;
4583;SDS011;2304;47.606;12.186;2023-12-07T18:50:01;9.23;;;6.97;;
4583;SDS011;2304;47.606;12.186;2023-12-07T18:55:04;10.73;;;5.63;;
4583;SDS011;2304;47.606;12.186;2023-12-07T19:00:07;12.27;;;7.17;;
4583;SDS011;2304;47.606;12.186;2023-12-07T19:05:09;9.60;;;6.93;;
4583;SDS011;2304;47.606;12.186;2023-12-07T19:10:13;10.63;;;7.70;;
4583;SDS011;2304;47.606;12.186;2023-12-07T19:15:15;9.63;;;6.67;;
4583;SDS011;2304;47.606;12.186;2023-12-07T19:20:17;11.77;;;7.90;;
4583;SDS011;2304;47.606;12.186;2023-12-07T19:25:20;12.70;;;6.87;;
4583;SDS011;2304;47.606;12.186;2023-12-07T19:30:22;12.27;;;7.80;;
4583;SDS011;2304;47.606;12.186;2023-12-07T19:35:24;11.43;;;7.20;;
4583;SDS011;2304;47.606;12.186;2023-12-07T19:40:27;13.03;;;7.60;;
4583;SDS011;2304;47.606;12.186;2023-12-07T19:45:28;15.97;;;7.27;;
4583;SDS011;2304;47.606;12.186;2023-12-07T19:50:31;8.73;;;5.80;;
4583;SDS011;2304;47.606;12.186;2023-12-07T19:55:34;12.83;;;6.53;;
4583;SDS011;2304;47.606;12.186;2023-12-07T20:00:36;10.40;;;6.80;;
4583;SDS011;2304;47.606;12.186;2023-12-07T20:05:37;10.70;;;5.50;;
4583;SDS011;2304;47.606;12.186;2023-12-07T20:10:41;9.70;;;6.23;;
4583;SDS011;2304;47.606;12.186;2023-12-07T20:15:43;8.47;;;5.93;;
4583;SDS011;2304;47.606;12.186;2023-12-07T20:20:44;10.27;;;6.53;;
4583;SDS011;2304;47.606;12.186;2023-12-07T20:25:48;9.40;;;6.87;;
4583;SDS011;2304;47.606;12.186;2023-12-07T20:30:49;7.87;;;5.70;;
4583;SDS011;2304;47.606;12.186;2023-12-07T20:35:51;10.63;;;7.10;;
4583;SDS011;2304;47.606;12.186;2023-12-07T20:40:54;9.87;;;6.67;;
4583;SDS011;2304;47.606;12.186;2023-12-07T20:45:56;12.83;;;7.17;;
4583;SDS011;2304;47.606;12.186;2023-12-07T20:50:58;10.40;;;7.37;;
4583;SDS011;2304;47.606;12.186;2023-12-07T20:56:02;11.47;;;6.83;;
4583;SDS011;2304;47.606;12.186;2023-12-07T21:01:04;16.07;;;8.27;;
4583;SDS011;2304;47.606;12.186;2023-12-07T21:06:06;13.00;;;7.37;;
4583;SDS011;2304;47.606;12.186;2023-12-07T21:11:10;9.90;;;6.17;;
4583;SDS011;2304;47.606;12.186;2023-12-07T21:16:12;19.80;;;7.67;;
4583;SDS011;2304;47.606;12.186;2023-12-07T21:21:14;10.77;;;5.30;;
4583;SDS011;2304;47.606;12.186;2023-12-07T21:26:17;14.47;;;5.67;;
4583;SDS011;2304;47.606;12.186;2023-12-07T21:31:19;7.10;;;4.10;;
4583;SDS011;2304;47.606;12.186;2023-12-07T21:36:22;8.60;;;5.50;;
4583;SDS011;2304;47.606;12.186;2023-12-07T21:41:25;6.77;;;4.33;;
4583;SDS011;2304;47.606;12.186;2023-12-07T21:46:27;9.80;;;5.70;;
4583;SDS011;2304;47.606;12.186;2023-12-07T21:51:28;12.27;;;5.33;;
4583;SDS011;2304;47.606;12.186;2023-12-07T21:56:31;7.80;;;5.53;;
4583;SDS011;2304;47.606;12.186;2023-12-07T22:01:33;9.00;;;4.53;;
4583;SDS011;2304;47.606;12.186;2023-12-07T22:06:35;8.73;;;5.60;;
4583;SDS011;2304;47.606;12.186;2023-12-07T22:11:38;7.83;;;4.97;;
4583;SDS011;2304;47.606;12.186;2023-12-07T22:16:40;10.73;;;6.47;;
4583;SDS011;2304;47.606;12.186;2023-12-07T22:21:42;7.30;;;5.07;;
4583;SDS011;2304;47.606;12.186;2023-12-07T22:26:45;8.90;;;5.10;;
4583;SDS011;2304;47.606;12.186;2023-12-07T22:31:47;10.40;;;5.63;;
4583;SDS011;2304;47.606;12.186;2023-12-07T22:36:49;8.20;;;4.83;;
4583;SDS011;2304;47.606;12.186;2023-12-07T22:41:52;8.30;;;5.23;;
4583;SDS011;2304;47.606;12.186;2023-12-07T22:46:54;7.23;;;4.60;;
4583;SDS011;2304;47.606;12.186;2023-12-07T22:51:56;5.70;;;4.33;;
4583;SDS011;2304;47.606;12.186;2023-12-07T22:56:59;11.00;;;6.10;;
4583;SDS011;2304;47.606;12.186;2023-12-07T23:02:03;12.80;;;6.53;;
4583;SDS011;2304;47.606;12.186;2023-12-07T23:07:05;14.60;;;6.57;;
4583;SDS011;2304;47.606;12.186;2023-12-07T23:12:08;9.60;;;5.23;;
4583;SDS011;2304;47.606;12.186;2023-12-07T23:17:10;12.77;;;5.73;;
4583;SDS011;2304;47.606;12.186;2023-12-07T23:22:11;9.40;;;5.37;;
4583;SDS011;2304;47.606;12.186;2023-12-07T23:27:15;10.73;;;5.20;;
4583;SDS011;2304;47.606;12.186;2023-12-07T23:32:17;7.23;;;4.83;;
4583;SDS011;2304;47.606;12.186;2023-12-07T23:37:18;7.80;;;4.70;;
4583;SDS011;2304;47.606;12.186;2023-12-07T23:42:22;7.43;;;4.57;;
4583;SDS011;2304;47.606;12.186;2023-12-07T23:47:23;6.73;;;4.10;;
4583;SDS011;2304;47.606;12.186;2023-12-07T23:52:25;6.80;;;4.63;;
4583;SDS011;2304;47.606;12.186;2023-12-07T23:57:28;5.20;;;3.70;;
